Time;durP1;ratioP1;P1;durP2;ratioP2;P2;SDS_P1;SDS_P2;PMS_P1;PMS_P2;Temp;Humidity;BMP_temperature;BMP_pressure;BME280_temperature;BME280_humidity;BME280_pressure;Samples;Min_cycle;Max_cycle;Signal;HPM_P1;HPM_P2
2023/12/09 00:01:22;;;;;;;339.33;37.78;;;3.20;99.90;;;;;;4994459;28;20037;-72
2023/12/09 00:03:47;;;;;;;511.95;44.35;;;3.20;99.90;;;;;;4994268;28;20046;-72
2023/12/09 00:06:13;;;;;;;376.08;40.42;;;3.20;99.90;;;;;;4994802;28;20034;-72
2023/12/09 00:08:39;;;;;;;489.58;38.22;;;3.20;99.90;;;;;;4994553;28;20046;-70
2023/12/09 00:11:07;;;;;;;498.67;39.50;;;3.20;99.90;;;;;;4994653;28;20026;-72
2023/12/09 00:13:33;;;;;;;360.13;36.17;;;3.30;99.90;;;;;;4994541;28;20049;-72
2023/12/09 00:15:59;;;;;;;512.10;39.30;;;3.30;99.90;;;;;;4991226;28;20023;-72
2023/12/09 00:18:25;;;;;;;417.42;40.05;;;3.30;99.90;;;;;;4994150;28;20050;-72
2023/12/09 00:20:50;;;;;;;303.48;37.30;;;3.30;99.90;;;;;;4992790;28;20037;-71
2023/12/09 00:23:16;;;;;;;563.00;45.63;;;3.30;99.90;;;;;;4993572;28;20084;-71
2023/12/09 00:25:42;;;;;;;459.67;42.15;;;3.30;99.90;;;;;;4995073;28;20070;-71
2023/12/09 00:28:07;;;;;;;513.13;42.40;;;3.30;99.90;;;;;;4994167;28;20089;-72
2023/12/09 00:30:35;;;;;;;371.85;37.10;;;3.30;99.90;;;;;;4992759;28;20064;-72
2023/12/09 00:33:01;;;;;;;483.52;40.55;;;3.30;99.90;;;;;;4992765;28;20022;-71
2023/12/09 00:35:27;;;;;;;431.40;39.92;;;3.30;99.90;;;;;;4994053;28;20081;-71
2023/12/09 00:37:53;;;;;;;522.85;39.65;;;3.30;99.90;;;;;;4991699;28;20018;-70
2023/12/09 00:40:19;;;;;;;588.00;39.33;;;3.30;99.90;;;;;;4994380;28;20054;-70
2023/12/09 00:42:46;;;;;;;584.10;45.33;;;3.40;99.90;;;;;;4993620;28;20066;-71
2023/12/09 00:45:13;;;;;;;377.42;38.67;;;3.30;99.90;;;;;;4993691;28;20022;-72
2023/12/09 00:47:39;;;;;;;394.00;39.63;;;3.40;99.90;;;;;;4993949;28;20042;-72
2023/12/09 00:50:05;;;;;;;499.65;39.10;;;3.40;99.90;;;;;;4992591;28;20022;-72
2023/12/09 00:52:31;;;;;;;533.72;39.60;;;3.40;99.90;;;;;;4994015;28;20076;-73
2023/12/09 00:54:57;;;;;;;532.20;41.42;;;3.40;99.90;;;;;;4994012;28;20027;-72
2023/12/09 00:57:24;;;;;;;602.40;43.03;;;3.40;99.90;;;;;;4993973;28;20034;-72
2023/12/09 00:59:50;;;;;;;632.85;43.38;;;3.50;99.90;;;;;;4993639;28;20034;-72
2023/12/09 01:02:15;;;;;;;609.70;42.38;;;3.50;99.90;;;;;;4993481;28;20054;-72
2023/12/09 01:04:41;;;;;;;789.65;50.33;;;3.60;99.90;;;;;;4991976;28;20050;-71
2023/12/09 01:07:06;;;;;;;573.30;41.97;;;3.50;99.90;;;;;;4993316;28;20137;-72
2023/12/09 01:09:32;;;;;;;649.00;42.83;;;3.50;99.90;;;;;;5007892;28;20065;-72
2023/12/09 01:11:57;;;;;;;542.75;42.38;;;3.60;99.90;;;;;;4993060;28;20033;-73
2023/12/09 01:14:23;;;;;;;643.80;42.92;;;3.60;99.90;;;;;;4993578;28;20551;-71
2023/12/09 01:16:49;;;;;;;803.00;47.03;;;3.60;99.90;;;;;;4993125;28;20045;-71
2023/12/09 01:19:17;;;;;;;636.50;43.35;;;3.60;99.90;;;;;;4992379;28;20035;-71
2023/12/09 01:21:43;;;;;;;658.05;43.97;;;3.60;99.90;;;;;;4993324;28;20089;-72
2023/12/09 01:24:08;;;;;;;653.17;43.72;;;3.60;99.90;;;;;;4992049;28;20055;-72
2023/12/09 01:26:37;;;;;;;757.42;46.40;;;3.70;99.90;;;;;;4993058;28;20050;-71
2023/12/09 01:29:03;;;;;;;674.15;42.88;;;3.70;99.90;;;;;;4992378;28;20042;-72
2023/12/09 01:31:30;;;;;;;692.22;41.95;;;3.70;99.90;;;;;;4992796;28;20030;-71
2023/12/09 01:33:56;;;;;;;657.00;42.42;;;3.60;99.90;;;;;;4993400;28;20337;-72
2023/12/09 01:36:21;;;;;;;710.58;44.65;;;3.60;99.90;;;;;;4992629;28;20094;-71
2023/12/09 01:38:47;;;;;;;762.20;45.40;;;3.60;99.90;;;;;;4993182;28;20023;-71
2023/12/09 01:41:12;;;;;;;685.50;42.97;;;3.60;99.90;;;;;;4992842;28;20072;-71
2023/12/09 01:43:38;;;;;;;709.60;42.90;;;3.70;99.90;;;;;;4992371;28;20027;-72
2023/12/09 01:46:10;;;;;;;844.95;49.13;;;3.70;99.90;;;;;;4991377;28;20026;-72
2023/12/09 01:48:37;;;;;;;766.03;46.90;;;3.70;99.90;;;;;;4992372;28;20042;-72
2023/12/09 01:51:04;;;;;;;871.40;48.85;;;3.80;99.90;;;;;;4992180;28;20030;-72
2023/12/09 01:53:30;;;;;;;721.75;45.67;;;3.80;99.90;;;;;;4991161;28;20061;-72
2023/12/09 01:55:59;;;;;;;698.83;44.75;;;3.80;99.90;;;;;;4992421;28;20100;-74
2023/12/09 01:58:25;;;;;;;747.25;44.40;;;3.80;99.90;;;;;;4992440;28;20026;-72
2023/12/09 02:00:53;;;;;;;809.45;49.00;;;3.90;99.90;;;;;;4991853;28;20357;-72
2023/12/09 02:03:19;;;;;;;526.65;41.10;;;3.90;99.90;;;;;;4989450;28;20150;-71
2023/12/09 02:05:45;;;;;;;560.33;44.17;;;3.90;99.90;;;;;;4991468;28;20027;-72
2023/12/09 02:08:10;;;;;;;736.70;46.13;;;3.90;99.90;;;;;;4992243;28;20050;-70
2023/12/09 02:10:36;;;;;;;590.47;42.17;;;4.00;99.90;;;;;;4992171;28;20061;-71
2023/12/09 02:13:12;;;;;;;519.92;40.45;;;4.10;99.90;;;;;;4990839;28;20033;-74
2023/12/09 02:15:49;;;;;;;688.10;46.50;;;4.00;99.90;;;;;;4990596;28;20042;-71
2023/12/09 02:18:16;;;;;;;594.67;43.65;;;4.20;99.90;;;;;;4991515;28;20026;-72
2023/12/09 02:20:42;;;;;;;690.88;46.40;;;4.10;99.90;;;;;;4991442;28;20057;-73
2023/12/09 02:23:12;;;;;;;687.63;47.33;;;4.10;99.90;;;;;;4991867;28;20030;-72
2023/12/09 02:25:39;;;;;;;773.75;49.42;;;4.10;99.90;;;;;;4991501;28;20061;-72
2023/12/09 02:28:18;;;;;;;719.35;46.05;;;4.20;99.90;;;;;;4990585;28;20141;-72
2023/12/09 02:31:09;;;;;;;744.40;47.15;;;4.20;99.90;;;;;;4991804;28;20026;-74
2023/12/09 02:33:36;;;;;;;427.00;38.83;;;4.20;99.90;;;;;;4989634;28;20045;-73
2023/12/09 02:36:03;;;;;;;649.38;47.83;;;4.10;99.90;;;;;;4991775;28;20093;-73
2023/12/09 02:38:31;;;;;;;730.28;47.67;;;4.20;99.90;;;;;;4990074;28;20033;-73
2023/12/09 02:40:57;;;;;;;613.35;43.63;;;4.20;99.90;;;;;;4991004;28;20078;-74
2023/12/09 02:43:22;;;;;;;491.80;42.38;;;4.20;99.90;;;;;;4991043;28;20031;-71
2023/12/09 02:45:48;;;;;;;572.67;44.35;;;4.30;99.90;;;;;;4991578;28;20061;-72
2023/12/09 02:48:14;;;;;;;203.40;35.92;;;4.40;99.90;;;;;;4989778;28;20041;-73
2023/12/09 02:50:39;;;;;;;554.63;43.90;;;4.30;99.90;;;;;;4990399;28;20030;-73
2023/12/09 02:53:05;;;;;;;778.60;48.95;;;4.30;99.90;;;;;;4991476;28;20030;-74
2023/12/09 02:55:30;;;;;;;580.92;42.83;;;4.30;99.90;;;;;;4991258;28;20022;-72
2023/12/09 02:57:56;;;;;;;275.83;37.17;;;4.40;99.90;;;;;;4991301;28;20026;-74
2023/12/09 03:00:21;;;;;;;778.35;53.00;;;4.30;99.90;;;;;;4990620;28;20031;-73
2023/12/09 03:02:47;;;;;;;691.13;50.97;;;4.40;99.90;;;;;;4991631;28;20019;-73
2023/12/09 03:05:13;;;;;;;765.83;52.25;;;4.40;99.90;;;;;;4989953;28;20117;-73
2023/12/09 03:07:38;;;;;;;774.47;50.67;;;4.40;99.90;;;;;;4989661;28;20046;-72
2023/12/09 03:10:04;;;;;;;731.25;50.35;;;4.40;99.90;;;;;;4989445;28;20085;-73
2023/12/09 03:12:30;;;;;;;604.22;48.50;;;4.40;99.90;;;;;;4990910;28;20041;-73
2023/12/09 03:14:55;;;;;;;726.15;52.47;;;4.50;99.90;;;;;;4991648;28;20018;-72
2023/12/09 03:17:21;;;;;;;607.60;46.45;;;4.40;99.90;;;;;;4989756;28;20031;-73
2023/12/09 03:19:47;;;;;;;690.85;50.50;;;4.50;99.90;;;;;;4990463;28;20086;-73
2023/12/09 03:22:12;;;;;;;758.38;52.95;;;4.60;99.90;;;;;;4990858;28;20476;-73
2023/12/09 03:24:38;;;;;;;803.67;54.42;;;4.50;99.90;;;;;;4990604;28;20101;-72
2023/12/09 03:27:04;;;;;;;559.55;48.55;;;4.50;99.90;;;;;;4988123;28;20569;-73
2023/12/09 03:29:29;;;;;;;723.60;52.53;;;4.50;99.90;;;;;;4990724;28;20027;-74
2023/12/09 03:31:55;;;;;;;693.65;48.28;;;4.50;99.90;;;;;;4989879;28;20031;-73
2023/12/09 03:34:20;;;;;;;679.38;49.33;;;4.60;99.90;;;;;;4989077;28;20038;-73
2023/12/09 03:36:46;;;;;;;880.20;56.38;;;4.50;99.90;;;;;;4991246;28;20069;-73
2023/12/09 03:39:12;;;;;;;788.83;53.22;;;4.50;99.90;;;;;;4990717;28;20023;-74
2023/12/09 03:41:37;;;;;;;920.28;54.72;;;4.50;99.90;;;;;;4990776;28;20073;-72
2023/12/09 03:44:03;;;;;;;688.80;50.90;;;4.50;99.90;;;;;;4990843;28;20384;-72
2023/12/09 03:46:29;;;;;;;903.30;56.67;;;4.50;99.90;;;;;;4991328;28;20031;-72
2023/12/09 03:48:54;;;;;;;877.28;56.45;;;4.50;99.90;;;;;;4990460;28;20057;-73
2023/12/09 03:51:20;;;;;;;860.60;57.53;;;4.70;99.90;;;;;;4990615;28;20027;-72
2023/12/09 03:53:45;;;;;;;796.10;55.65;;;4.60;99.90;;;;;;4990698;28;20027;-73
2023/12/09 03:56:11;;;;;;;1012.08;60.88;;;4.70;99.90;;;;;;4990705;28;20114;-73
2023/12/09 03:58:37;;;;;;;1026.78;59.17;;;4.60;99.90;;;;;;4990543;28;20054;-74
2023/12/09 04:01:04;;;;;;;1025.53;62.28;;;4.60;99.90;;;;;;4990240;28;20038;-72
2023/12/09 04:03:30;;;;;;;921.22;58.65;;;4.60;99.90;;;;;;4990911;28;20058;-72
2023/12/09 04:05:55;;;;;;;1091.18;64.43;;;4.60;99.90;;;;;;4990431;28;20383;-72
2023/12/09 04:08:21;;;;;;;1037.15;59.75;;;4.70;99.90;;;;;;4990715;28;20093;-72
2023/12/09 04:10:47;;;;;;;956.88;57.78;;;4.60;99.90;;;;;;4993199;28;20030;-72
2023/12/09 04:13:12;;;;;;;931.05;58.20;;;4.60;99.90;;;;;;4993644;28;20026;-74
2023/12/09 04:15:38;;;;;;;888.53;58.33;;;4.60;99.90;;;;;;4994659;28;20049;-72
2023/12/09 04:18:05;;;;;;;770.20;59.15;;;4.60;99.90;;;;;;4993928;28;20042;-72
2023/12/09 04:20:30;;;;;;;755.03;56.88;;;4.70;99.90;;;;;;4992500;28;20086;-72
2023/12/09 04:22:56;;;;;;;768.67;56.50;;;4.70;99.90;;;;;;4993533;28;20046;-72
2023/12/09 04:25:21;;;;;;;923.28;63.67;;;4.70;99.90;;;;;;4993644;28;20055;-72
2023/12/09 04:27:48;;;;;;;726.15;55.58;;;4.80;99.90;;;;;;4994195;28;20093;-71
2023/12/09 04:30:13;;;;;;;842.45;63.88;;;4.90;99.90;;;;;;5008560;28;20077;-72
2023/12/09 04:32:39;;;;;;;674.28;56.55;;;4.80;99.90;;;;;;4993397;28;20023;-72
2023/12/09 04:35:06;;;;;;;934.85;62.58;;;4.80;99.90;;;;;;4991999;28;20113;-73
2023/12/09 04:37:31;;;;;;;721.25;55.72;;;4.80;99.90;;;;;;4992378;28;20432;-73
2023/12/09 04:39:57;;;;;;;724.38;55.67;;;4.80;99.90;;;;;;4991609;28;20026;-74
2023/12/09 04:42:22;;;;;;;665.58;54.33;;;4.80;99.90;;;;;;4993313;28;20038;-71
2023/12/09 04:44:48;;;;;;;676.20;57.95;;;4.80;99.90;;;;;;4993765;28;20022;-72
2023/12/09 04:47:13;;;;;;;754.90;55.80;;;4.80;99.90;;;;;;4993040;28;20053;-73
2023/12/09 04:49:39;;;;;;;812.65;58.58;;;4.90;99.90;;;;;;4993800;28;20452;-72
2023/12/09 04:52:05;;;;;;;718.08;56.40;;;4.80;99.90;;;;;;4992779;28;20022;-73
2023/12/09 04:54:30;;;;;;;776.33;56.90;;;4.90;99.90;;;;;;4993244;28;20027;-72
2023/12/09 04:56:56;;;;;;;719.90;58.50;;;4.80;99.90;;;;;;4994028;28;20064;-73
2023/12/09 04:59:22;;;;;;;806.10;59.58;;;4.90;99.90;;;;;;4991666;28;20023;-73
2023/12/09 05:01:48;;;;;;;723.63;54.70;;;4.90;99.90;;;;;;4992882;28;20027;-72
2023/12/09 05:04:14;;;;;;;510.83;51.80;;;4.90;99.90;;;;;;4992643;28;20121;-73
2023/12/09 05:06:39;;;;;;;702.22;57.33;;;4.80;99.90;;;;;;4992587;28;20038;-71
2023/12/09 05:09:05;;;;;;;694.05;56.15;;;4.90;99.90;;;;;;4993565;28;20034;-73
2023/12/09 05:11:34;;;;;;;636.50;55.95;;;4.90;99.90;;;;;;4993503;28;20109;-71
2023/12/09 05:13:59;;;;;;;547.25;50.47;;;4.90;99.90;;;;;;4993955;28;20027;-71
2023/12/09 05:16:25;;;;;;;642.83;54.03;;;5.00;99.90;;;;;;4993968;28;20093;-71
2023/12/09 05:18:52;;;;;;;695.95;56.42;;;4.90;99.90;;;;;;4990578;28;20033;-72
2023/12/09 05:21:17;;;;;;;844.67;59.80;;;5.00;99.90;;;;;;4991948;28;20042;-72
2023/12/09 05:23:43;;;;;;;613.58;55.53;;;4.90;99.90;;;;;;4992979;28;20053;-70
2023/12/09 05:26:09;;;;;;;793.03;58.63;;;4.90;99.90;;;;;;4993395;28;20047;-70
2023/12/09 05:28:35;;;;;;;622.47;52.75;;;5.00;99.90;;;;;;4993655;28;20093;-71
2023/12/09 05:31:01;;;;;;;689.97;56.33;;;4.90;99.90;;;;;;4993416;28;20549;-69
2023/12/09 05:33:26;;;;;;;343.08;47.03;;;5.00;99.90;;;;;;4994240;28;20042;-72
2023/12/09 05:35:52;;;;;;;585.05;54.42;;;5.10;99.90;;;;;;4991814;28;20030;-70
2023/12/09 05:38:17;;;;;;;498.40;49.17;;;5.00;99.90;;;;;;4992227;28;20036;-70
2023/12/09 05:40:43;;;;;;;436.40;48.58;;;5.10;99.90;;;;;;4990845;28;20046;-71
2023/12/09 05:43:08;;;;;;;466.27;48.50;;;5.00;99.90;;;;;;4993446;28;20034;-70
2023/12/09 05:45:34;;;;;;;334.92;46.13;;;5.10;99.90;;;;;;4993255;28;20077;-72
2023/12/09 05:47:59;;;;;;;215.63;42.90;;;5.10;99.90;;;;;;4993638;28;20061;-72
2023/12/09 05:50:25;;;;;;;249.23;41.83;;;5.10;99.90;;;;;;4992712;28;20058;-70
2023/12/09 05:52:51;;;;;;;223.80;40.80;;;5.00;99.90;;;;;;4993587;28;20031;-72
2023/12/09 05:55:17;;;;;;;238.35;41.65;;;5.10;99.90;;;;;;4992789;28;20030;-69
2023/12/09 05:57:43;;;;;;;171.70;38.28;;;5.00;99.90;;;;;;4993022;28;20026;-70
2023/12/09 06:00:12;;;;;;;189.93;39.63;;;5.10;99.90;;;;;;4993679;28;20031;-70
2023/12/09 06:02:41;;;;;;;150.00;38.85;;;5.00;99.90;;;;;;4992497;28;21074;-70
2023/12/09 06:05:07;;;;;;;152.50;37.65;;;5.10;99.90;;;;;;4993593;28;20042;-69
2023/12/09 06:07:32;;;;;;;153.40;38.72;;;5.10;99.90;;;;;;4993310;28;20061;-72
2023/12/09 06:09:58;;;;;;;147.27;37.03;;;5.10;99.90;;;;;;4993783;28;20047;-70
2023/12/09 06:12:23;;;;;;;144.60;37.60;;;5.10;99.90;;;;;;4993065;28;20031;-70
2023/12/09 06:14:49;;;;;;;148.70;39.00;;;5.00;99.90;;;;;;4990690;28;20084;-70
2023/12/09 06:17:14;;;;;;;148.73;37.85;;;5.10;99.90;;;;;;4991331;28;20034;-71
2023/12/09 06:19:41;;;;;;;127.38;36.92;;;5.10;99.90;;;;;;4989577;28;20034;-70
2023/12/09 06:22:06;;;;;;;131.63;37.05;;;5.20;99.90;;;;;;4992720;28;20031;-69
2023/12/09 06:24:32;;;;;;;144.98;36.13;;;5.10;99.90;;;;;;4991851;28;20033;-70
2023/12/09 06:26:57;;;;;;;128.75;36.10;;;5.10;99.90;;;;;;4993096;28;20098;-70
2023/12/09 06:29:23;;;;;;;117.57;35.95;;;5.10;99.90;;;;;;4992089;28;20058;-70
2023/12/09 06:31:49;;;;;;;125.50;36.58;;;5.10;99.90;;;;;;4992968;28;20109;-70
2023/12/09 06:34:15;;;;;;;122.90;34.50;;;5.20;99.90;;;;;;4984896;28;20085;-70
2023/12/09 06:36:41;;;;;;;126.13;34.75;;;5.00;99.90;;;;;;4988901;28;20026;-70
2023/12/09 06:39:07;;;;;;;119.43;34.25;;;5.00;99.90;;;;;;4987441;28;20127;-70
2023/12/09 06:41:32;;;;;;;118.95;33.92;;;5.10;99.90;;;;;;4986094;28;20038;-72
2023/12/09 06:43:58;;;;;;;118.90;32.88;;;5.10;99.90;;;;;;4991412;28;20053;-70
2023/12/09 06:46:23;;;;;;;114.03;31.33;;;5.20;99.90;;;;;;4989914;28;20049;-71
2023/12/09 06:48:49;;;;;;;108.80;31.90;;;5.20;99.90;;;;;;4989659;28;20045;-70
2023/12/09 06:51:15;;;;;;;89.65;29.92;;;5.10;99.90;;;;;;4992476;28;20022;-68
2023/12/09 06:53:42;;;;;;;101.60;33.35;;;5.20;99.90;;;;;;4992322;28;20022;-71
2023/12/09 06:56:08;;;;;;;97.22;30.38;;;5.20;99.90;;;;;;4992702;28;20030;-69
2023/12/09 06:58:35;;;;;;;102.50;30.20;;;5.20;99.90;;;;;;4992458;28;20521;-71
2023/12/09 07:01:01;;;;;;;99.90;30.48;;;5.30;99.90;;;;;;4990736;28;20018;-69
2023/12/09 07:03:27;;;;;;;99.78;30.35;;;5.20;99.90;;;;;;4991303;28;20058;-71
2023/12/09 07:05:52;;;;;;;98.53;30.92;;;5.20;99.90;;;;;;4992647;28;20022;-70
2023/12/09 07:08:18;;;;;;;92.97;28.25;;;5.20;99.90;;;;;;4992144;28;20058;-69
2023/12/09 07:10:45;;;;;;;94.47;28.30;;;5.30;99.90;;;;;;4992996;28;20384;-69
2023/12/09 07:13:10;;;;;;;96.55;29.80;;;5.30;99.90;;;;;;4991966;28;20029;-70
2023/12/09 07:15:36;;;;;;;83.88;28.05;;;5.30;99.90;;;;;;4990810;28;20019;-70
2023/12/09 07:18:01;;;;;;;87.25;28.08;;;5.20;99.90;;;;;;4992544;28;20114;-70
2023/12/09 07:20:27;;;;;;;85.95;27.08;;;5.30;99.90;;;;;;4992336;28;20117;-69
2023/12/09 07:22:52;;;;;;;87.90;27.58;;;5.20;99.90;;;;;;4992653;28;20026;-69
2023/12/09 07:25:19;;;;;;;79.35;26.95;;;5.30;99.90;;;;;;4991618;28;20068;-70
2023/12/09 07:27:45;;;;;;;91.53;25.70;;;5.30;99.90;;;;;;4991830;28;20126;-69
2023/12/09 07:30:11;;;;;;;81.68;28.38;;;5.30;99.90;;;;;;4991380;28;20046;-69
2023/12/09 07:32:36;;;;;;;72.97;25.45;;;5.30;99.90;;;;;;4992122;28;20479;-69
2023/12/09 07:35:02;;;;;;;77.78;26.25;;;5.30;99.90;;;;;;4991194;28;20029;-69
2023/12/09 07:37:27;;;;;;;82.32;26.40;;;5.40;99.90;;;;;;4992324;28;20057;-68
2023/12/09 07:39:53;;;;;;;89.68;25.83;;;5.30;99.90;;;;;;4991090;28;20037;-69
2023/12/09 07:42:18;;;;;;;76.47;26.08;;;5.40;99.90;;;;;;4984111;28;20090;-70
2023/12/09 07:44:44;;;;;;;77.03;24.00;;;5.40;99.90;;;;;;4991237;28;20069;-69
2023/12/09 07:47:09;;;;;;;75.72;25.17;;;5.40;99.90;;;;;;4993650;28;20035;-69
2023/12/09 07:49:35;;;;;;;68.30;25.20;;;5.40;99.90;;;;;;4990240;28;20035;-71
2023/12/09 07:52:01;;;;;;;72.85;24.77;;;5.60;99.90;;;;;;4996389;28;20094;-69
2023/12/09 07:54:27;;;;;;;77.05;25.45;;;5.40;99.90;;;;;;4994086;28;20034;-69
2023/12/09 07:56:52;;;;;;;79.75;25.23;;;5.40;99.90;;;;;;4996121;28;20019;-69
2023/12/09 07:59:18;;;;;;;74.00;25.05;;;5.40;99.90;;;;;;4995465;28;20034;-69
2023/12/09 08:01:44;;;;;;;73.18;24.42;;;5.50;99.90;;;;;;4993276;28;20041;-70
2023/12/09 08:04:10;;;;;;;64.57;23.52;;;5.50;99.90;;;;;;4995604;28;20109;-69
2023/12/09 08:06:35;;;;;;;70.18;24.30;;;5.50;99.90;;;;;;4995394;28;20677;-71
2023/12/09 08:09:02;;;;;;;72.22;24.50;;;5.50;99.90;;;;;;4990869;28;20046;-71
2023/12/09 08:11:27;;;;;;;70.05;23.65;;;5.50;99.90;;;;;;4992093;28;20090;-69
2023/12/09 08:13:53;;;;;;;69.88;23.52;;;5.50;99.90;;;;;;4992561;28;20061;-70
2023/12/09 08:16:18;;;;;;;71.30;22.92;;;5.50;99.90;;;;;;5007878;28;20598;-69
2023/12/09 08:18:44;;;;;;;71.88;23.33;;;5.40;99.90;;;;;;4991500;28;21071;-70
2023/12/09 08:21:10;;;;;;;73.97;22.50;;;5.50;99.90;;;;;;4991528;28;20019;-69
2023/12/09 08:23:36;;;;;;;60.67;22.13;;;5.50;99.90;;;;;;4993636;28;20038;-70
2023/12/09 08:26:03;;;;;;;65.13;21.42;;;5.60;99.90;;;;;;4993790;28;20134;-69
2023/12/09 08:28:29;;;;;;;61.90;20.63;;;5.60;99.90;;;;;;4994777;28;20395;-70
2023/12/09 08:30:55;;;;;;;64.78;21.17;;;5.50;99.90;;;;;;4994075;28;20371;-70
2023/12/09 08:33:20;;;;;;;68.85;21.48;;;5.60;99.90;;;;;;4992643;28;20027;-69
2023/12/09 08:35:46;;;;;;;58.08;20.92;;;5.60;99.90;;;;;;4994960;28;20035;-69
2023/12/09 08:38:11;;;;;;;66.03;20.13;;;5.60;99.90;;;;;;4994284;28;20026;-71
2023/12/09 08:40:37;;;;;;;69.75;20.02;;;5.60;99.90;;;;;;5007011;28;20026;-69
2023/12/09 08:43:02;;;;;;;68.00;19.38;;;5.60;99.90;;;;;;4992991;28;20648;-69
2023/12/09 08:45:31;;;;;;;56.00;18.75;;;5.60;99.90;;;;;;4991229;28;20061;-69
2023/12/09 08:47:56;;;;;;;57.60;18.50;;;5.70;99.90;;;;;;4991844;28;20034;-70
2023/12/09 08:50:22;;;;;;;58.03;18.38;;;5.70;99.90;;;;;;4993396;28;20105;-69
2023/12/09 08:52:48;;;;;;;56.30;18.33;;;5.70;99.90;;;;;;4992805;28;20034;-71
2023/12/09 08:55:13;;;;;;;59.38;17.20;;;5.70;99.90;;;;;;4992841;28;20019;-70
2023/12/09 08:57:39;;;;;;;51.58;16.80;;;5.70;99.90;;;;;;4993617;28;20476;-69
2023/12/09 09:00:08;;;;;;;50.95;15.23;;;5.80;99.90;;;;;;4993848;28;20026;-70
2023/12/09 09:02:33;;;;;;;44.33;15.80;;;5.80;99.90;;;;;;4994378;28;20026;-69
2023/12/09 09:04:59;;;;;;;52.33;16.52;;;5.80;99.90;;;;;;4993689;28;20038;-70
2023/12/09 09:07:24;;;;;;;45.00;14.32;;;5.80;99.90;;;;;;4990863;28;20082;-69
2023/12/09 09:09:50;;;;;;;46.83;14.52;;;5.90;99.90;;;;;;4992231;28;20035;-70
2023/12/09 09:12:15;;;;;;;39.75;13.88;;;5.90;99.90;;;;;;4989653;28;20048;-69
2023/12/09 09:14:41;;;;;;;42.92;13.80;;;6.10;99.90;;;;;;4989785;28;20026;-70
2023/12/09 09:17:06;;;;;;;40.00;14.32;;;6.20;99.90;;;;;;4989174;28;20057;-70
2023/12/09 09:19:32;;;;;;;35.03;12.80;;;6.30;99.90;;;;;;4991302;28;20035;-71
2023/12/09 09:21:58;;;;;;;45.58;13.75;;;6.40;99.90;;;;;;4990622;28;20038;-69
2023/12/09 09:24:24;;;;;;;45.30;13.52;;;6.50;99.90;;;;;;4992172;28;20034;-69
2023/12/09 09:26:49;;;;;;;40.65;13.68;;;6.50;99.90;;;;;;5004735;28;20047;-69
2023/12/09 09:29:15;;;;;;;38.90;12.55;;;6.60;99.90;;;;;;4991696;28;20046;-68
2023/12/09 09:31:40;;;;;;;33.72;12.18;;;6.70;99.90;;;;;;4991258;28;20065;-69
2023/12/09 09:34:09;;;;;;;33.33;11.02;;;6.80;99.90;;;;;;4992132;28;20392;-69
2023/12/09 09:36:37;;;;;;;26.80;10.43;;;6.90;99.90;;;;;;4989867;28;20027;-70
2023/12/09 09:39:03;;;;;;;27.52;10.32;;;6.90;99.90;;;;;;4991170;28;20034;-69
2023/12/09 09:41:36;;;;;;;32.72;11.10;;;7.10;99.90;;;;;;4993793;28;20022;-70
2023/12/09 09:44:10;;;;;;;29.42;10.13;;;7.20;99.90;;;;;;4993441;28;20030;-70
2023/12/09 09:46:37;;;;;;;36.53;9.57;;;7.40;99.90;;;;;;4993462;28;20033;-69
2023/12/09 09:49:04;;;;;;;28.75;9.20;;;7.60;99.90;;;;;;4993831;28;20128;-70
2023/12/09 09:51:31;;;;;;;29.83;8.77;;;7.80;99.90;;;;;;4993435;28;20030;-70
2023/12/09 09:54:23;;;;;;;26.77;8.48;;;8.10;99.90;;;;;;4993376;28;20053;-71
2023/12/09 09:56:50;;;;;;;21.85;7.68;;;8.50;99.90;;;;;;4991523;28;20065;-71
2023/12/09 09:59:20;;;;;;;23.65;8.63;;;8.70;99.90;;;;;;4991443;28;20877;-70
2023/12/09 10:01:46;;;;;;;24.73;7.88;;;8.60;99.90;;;;;;4990760;28;20045;-70
2023/12/09 10:04:12;;;;;;;27.48;7.88;;;8.50;99.90;;;;;;4991757;28;20023;-68
2023/12/09 10:06:39;;;;;;;21.67;6.78;;;8.20;99.90;;;;;;4992187;28;20057;-69
2023/12/09 10:09:05;;;;;;;19.25;6.57;;;7.90;99.90;;;;;;4991747;28;20035;-69
2023/12/09 10:11:31;;;;;;;19.02;7.15;;;7.70;99.90;;;;;;4986859;28;20019;-69
2023/12/09 10:13:56;;;;;;;22.05;6.93;;;7.50;99.90;;;;;;4992482;28;20102;-70
2023/12/09 10:16:22;;;;;;;25.00;7.25;;;7.40;99.90;;;;;;4991015;28;20026;-69
2023/12/09 10:18:48;;;;;;;19.10;7.03;;;7.30;99.90;;;;;;4992635;28;20046;-68
2023/12/09 10:21:15;;;;;;;27.80;7.50;;;7.20;99.90;;;;;;4990435;28;20026;-70
2023/12/09 10:23:41;;;;;;;23.30;7.20;;;7.10;99.90;;;;;;4992111;28;20019;-69
2023/12/09 10:26:09;;;;;;;20.67;6.75;;;7.00;99.90;;;;;;4992189;28;20103;-68
2023/12/09 10:28:35;;;;;;;17.73;5.80;;;7.00;99.90;;;;;;4990544;28;20034;-70
2023/12/09 10:31:02;;;;;;;30.63;6.93;;;7.10;99.90;;;;;;4990706;28;20034;-69
2023/12/09 10:33:32;;;;;;;26.48;6.00;;;7.10;99.90;;;;;;4989741;28;20117;-70
2023/12/09 10:35:57;;;;;;;21.13;6.18;;;7.20;99.90;;;;;;4990145;28;20065;-70
2023/12/09 10:38:23;;;;;;;20.48;5.60;;;7.40;99.90;;;;;;4992248;28;20097;-69
2023/12/09 10:40:49;;;;;;;13.77;5.07;;;7.60;99.90;;;;;;4991714;28;20096;-68
2023/12/09 10:43:15;;;;;;;15.35;5.10;;;7.80;99.90;;;;;;4990188;28;20464;-69
2023/12/09 10:45:42;;;;;;;13.38;5.20;;;7.90;99.90;;;;;;4991132;28;20026;-69
2023/12/09 10:48:07;;;;;;;20.35;5.38;;;8.00;99.90;;;;;;4992238;28;20026;-69
2023/12/09 10:50:35;;;;;;;24.02;4.93;;;8.10;99.90;;;;;;4991707;28;20045;-68
2023/12/09 10:53:01;;;;;;;17.58;5.10;;;8.10;99.90;;;;;;4991978;28;20052;-68
2023/12/09 10:55:26;;;;;;;18.50;5.22;;;8.20;99.90;;;;;;4988400;28;20476;-69
2023/12/09 10:57:53;;;;;;;16.80;4.97;;;8.30;99.90;;;;;;4991675;28;20507;-68
2023/12/09 11:00:19;;;;;;;15.25;5.20;;;8.50;99.90;;;;;;4989855;28;20039;-67
2023/12/09 11:02:46;;;;;;;17.83;4.72;;;8.60;99.90;;;;;;4990410;28;20094;-68
2023/12/09 11:05:12;;;;;;;15.75;4.30;;;8.80;99.90;;;;;;4988811;28;20027;-68
2023/12/09 11:07:39;;;;;;;16.23;4.55;;;8.90;99.90;;;;;;4987049;28;20045;-69
2023/12/09 11:10:08;;;;;;;15.93;5.53;;;9.00;99.90;;;;;;4990414;28;20034;-68
2023/12/09 11:12:35;;;;;;;17.67;5.13;;;9.10;99.90;;;;;;4990678;28;20031;-68
2023/12/09 11:15:13;;;;;;;17.50;5.13;;;9.00;99.90;;;;;;4986114;28;20365;-68
2023/12/09 11:17:49;;;;;;;14.63;4.60;;;8.90;99.90;;;;;;4987729;28;20031;-69
2023/12/09 11:20:18;;;;;;;11.07;4.30;;;8.80;99.90;;;;;;4988614;28;20157;-67
2023/12/09 11:22:45;;;;;;;18.85;4.40;;;8.60;99.90;;;;;;4991418;28;20066;-67
2023/12/09 11:25:18;;;;;;;12.15;4.60;;;8.40;99.90;;;;;;4990249;28;20073;-67
2023/12/09 11:27:43;;;;;;;12.80;5.07;;;8.30;99.90;;;;;;4991538;28;20042;-67
2023/12/09 11:30:31;;;;;;;16.05;5.05;;;8.30;99.90;;;;;;4992376;28;20031;-68
2023/12/09 11:32:57;;;;;;;17.52;4.80;;;8.30;99.90;;;;;;4992107;28;20031;-69
2023/12/09 11:35:25;;;;;;;12.07;4.13;;;8.20;99.90;;;;;;4992109;28;20054;-68
2023/12/09 11:37:52;;;;;;;14.68;3.70;;;8.20;99.90;;;;;;4992223;28;20027;-67
2023/12/09 11:40:18;;;;;;;19.17;5.30;;;8.10;99.90;;;;;;4992313;28;20035;-68
2023/12/09 11:42:45;;;;;;;15.90;4.57;;;8.00;99.90;;;;;;4992104;28;20031;-68
2023/12/09 11:45:12;;;;;;;15.45;4.97;;;8.00;99.90;;;;;;4992223;28;20053;-68
2023/12/09 11:47:39;;;;;;;14.95;4.38;;;8.00;99.90;;;;;;4991905;28;20049;-68
2023/12/09 11:50:07;;;;;;;9.32;4.13;;;8.00;99.90;;;;;;4992116;28;20026;-67
2023/12/09 11:52:33;;;;;;;13.25;5.00;;;8.00;99.90;;;;;;4990976;28;20027;-69
2023/12/09 11:55:10;;;;;;;17.08;5.55;;;8.00;99.90;;;;;;4992349;28;20048;-67
2023/12/09 11:57:36;;;;;;;15.50;5.28;;;8.10;99.90;;;;;;4992270;28;20023;-69
2023/12/09 12:00:06;;;;;;;11.65;4.25;;;8.30;99.90;;;;;;4991854;28;20034;-67
2023/12/09 12:02:32;;;;;;;12.27;4.57;;;8.60;99.90;;;;;;4992196;28;20117;-67
2023/12/09 12:04:58;;;;;;;12.05;4.60;;;8.80;99.90;;;;;;4991409;28;20025;-68
2023/12/09 12:07:24;;;;;;;15.07;4.45;;;9.10;99.90;;;;;;4991667;28;20066;-68
2023/12/09 12:09:50;;;;;;;11.18;4.22;;;9.10;99.90;;;;;;4991963;28;20035;-67
2023/12/09 12:12:16;;;;;;;23.27;5.78;;;9.20;99.90;;;;;;4991091;28;20027;-69
2023/12/09 12:14:42;;;;;;;10.93;5.00;;;9.20;99.90;;;;;;4992159;28;20053;-66
2023/12/09 12:17:09;;;;;;;15.65;4.97;;;9.20;99.90;;;;;;4989575;28;20050;-67
2023/12/09 12:19:35;;;;;;;15.40;5.15;;;9.10;99.90;;;;;;4991692;28;20038;-69
2023/12/09 12:22:01;;;;;;;14.45;6.00;;;9.00;99.90;;;;;;4987852;28;20640;-67
2023/12/09 12:24:27;;;;;;;14.25;5.90;;;8.70;99.90;;;;;;4990508;28;20044;-68
2023/12/09 12:26:55;;;;;;;12.73;5.45;;;8.50;99.90;;;;;;4988732;28;20062;-67
2023/12/09 12:29:21;;;;;;;12.60;5.65;;;8.30;99.90;;;;;;4986240;28;20090;-68